createdAt,value
2022-08-05T00:01:27.925Z,3.95
2022-08-05T00:06:32.151Z,3.60
2022-08-05T00:11:35.171Z,4.13
2022-08-05T00:16:53.354Z,3.13
2022-08-05T00:21:51.407Z,4.25
2022-08-05T00:26:51.830Z,3.95
2022-08-05T00:32:10.150Z,4.30
2022-08-05T00:37:10.806Z,4.20
2022-08-05T00:42:09.874Z,4.43
2022-08-05T00:47:08.291Z,4.10
2022-08-05T00:52:09.443Z,4.57
2022-08-05T00:57:09.289Z,4.40
2022-08-05T01:02:06.525Z,4.38
2022-08-05T01:07:06.606Z,3.75
2022-08-05T01:12:18.617Z,4.57
2022-08-05T01:17:21.703Z,4.53
2022-08-05T01:22:28.116Z,4.57
2022-08-05T01:27:25.658Z,4.32
2022-08-05T01:32:27.728Z,4.85
2022-08-05T01:37:55.428Z,4.30
2022-08-05T01:42:59.210Z,4.80
2022-08-05T01:48:00.441Z,4.10
2022-08-05T01:53:02.271Z,4.28
2022-08-05T01:58:13.860Z,4.95
2022-08-05T02:03:45.820Z,4.10
2022-08-05T02:08:54.884Z,5.40
2022-08-05T02:14:27.852Z,5.32
2022-08-05T02:19:40.590Z,5.00
2022-08-05T02:24:53.480Z,5.07
2022-08-05T02:29:58.937Z,5.10
2022-08-05T02:35:13.939Z,5.97
2022-08-05T02:40:12.231Z,5.47
2022-08-05T02:45:11.031Z,4.57
2022-08-05T02:50:10.210Z,4.30
2022-08-05T02:55:10.896Z,4.75
2022-08-05T03:00:12.080Z,6.05
2022-08-05T03:10:10.138Z,5.10
2022-08-05T03:15:10.084Z,6.15
2022-08-05T03:20:10.548Z,5.80
2022-08-05T03:25:32.377Z,5.20
2022-08-05T03:30:34.060Z,5.65
2022-08-05T03:35:33.817Z,5.47
2022-08-05T03:40:48.475Z,5.93
2022-08-05T03:45:57.951Z,4.75
2022-08-05T03:52:37.937Z,5.50
2022-08-05T03:56:38.579Z,5.10
2022-08-05T04:01:43.072Z,5.53
2022-08-05T04:06:47.849Z,5.85
2022-08-05T04:11:52.610Z,5.60
2022-08-05T04:16:50.595Z,5.13
2022-08-05T04:22:10.163Z,5.03
2022-08-05T04:27:08.000Z,5.18
2022-08-05T04:32:06.237Z,5.85
2022-08-05T04:37:04.913Z,7.00
2022-08-05T04:42:02.284Z,5.97
2022-08-05T04:47:09.345Z,5.13
2022-08-05T04:52:17.647Z,5.35
2022-08-05T04:57:16.116Z,5.97
2022-08-05T05:02:36.871Z,6.30
2022-08-05T05:07:35.351Z,6.45
2022-08-05T05:12:33.851Z,6.68
2022-08-05T05:17:57.037Z,6.25
2022-08-05T05:22:54.890Z,5.28
2022-08-05T05:27:56.089Z,5.95
2022-08-05T05:32:53.699Z,5.97
2022-08-05T05:37:59.529Z,5.78
2022-08-05T05:42:58.933Z,5.93
2022-08-05T05:48:05.506Z,5.53
2022-08-05T05:53:20.721Z,4.97
2022-08-05T05:58:19.154Z,4.10
2022-08-05T06:03:53.629Z,4.28
2022-08-05T06:08:47.830Z,4.25
2022-08-05T06:13:53.658Z,3.55
2022-08-05T06:18:53.670Z,3.47
2022-08-05T06:23:51.084Z,4.05
2022-08-05T06:28:48.376Z,3.42
2022-08-05T06:34:07.736Z,3.58
2022-08-05T06:39:02.949Z,3.55
2022-08-05T06:44:00.875Z,3.47
2022-08-05T06:49:01.026Z,3.05
2022-08-05T06:54:02.168Z,3.88
2022-08-05T06:58:59.894Z,2.97
2022-08-05T07:03:57.726Z,3.20
2022-08-05T07:08:56.641Z,3.55
2022-08-05T07:14:15.466Z,4.00
2022-08-05T07:20:05.811Z,3.63
2022-08-05T07:24:43.876Z,3.70
2022-08-05T07:30:27.678Z,3.28
2022-08-05T07:36:01.557Z,4.03
2022-08-05T07:40:33.367Z,3.65
2022-08-05T07:45:57.767Z,3.90
2022-08-05T07:50:50.799Z,3.65
2022-08-05T07:56:05.575Z,3.60
2022-08-05T08:01:12.257Z,4.18
2022-08-05T08:06:10.186Z,3.80
2022-08-05T08:11:08.985Z,3.45
2022-08-05T08:16:34.974Z,3.38
2022-08-05T08:26:26.782Z,4.38
2022-08-05T08:31:27.127Z,3.88
2022-08-05T08:36:37.510Z,4.43
2022-08-05T08:41:52.009Z,4.85
2022-08-05T08:46:57.369Z,3.70
2022-08-05T08:52:05.985Z,3.33
2022-08-05T08:57:13.396Z,3.30
2022-08-05T09:02:11.783Z,4.03
2022-08-05T09:07:19.353Z,3.70
2022-08-05T09:12:20.435Z,4.15
2022-08-05T09:17:41.243Z,3.40
2022-08-05T09:23:19.721Z,3.65
2022-08-05T09:28:31.922Z,3.50
2022-08-05T09:33:35.102Z,3.22
2022-08-05T09:38:33.077Z,3.65
2022-08-05T09:43:41.366Z,3.95
2022-08-05T09:48:40.455Z,4.22
2022-08-05T09:53:54.895Z,3.67
2022-08-05T09:59:06.794Z,4.10
2022-08-05T10:04:16.199Z,4.30
2022-08-05T10:09:27.295Z,3.63
2022-08-05T10:14:35.677Z,3.80
2022-08-05T10:20:04.305Z,4.10
2022-08-05T10:24:51.547Z,3.78
2022-08-05T10:30:06.433Z,3.58
2022-08-05T10:35:07.338Z,3.72
2022-08-05T10:40:18.166Z,3.55
2022-08-05T10:45:23.222Z,3.80
2022-08-05T10:50:36.325Z,3.60
2022-08-05T10:56:03.200Z,3.40
2022-08-05T11:01:02.707Z,4.03
2022-08-05T11:06:06.330Z,3.90
2022-08-05T11:11:44.282Z,3.45
2022-08-05T11:16:56.659Z,3.53
2022-08-05T11:22:17.093Z,3.15
2022-08-05T11:27:51.440Z,3.10
2022-08-05T11:32:48.725Z,3.17
2022-08-05T11:43:21.752Z,3.05
2022-08-05T11:53:42.074Z,2.88
2022-08-05T11:58:41.890Z,3.42
2022-08-05T12:03:55.595Z,2.97
2022-08-05T12:08:56.553Z,3.03
2022-08-05T12:14:04.698Z,3.70
2022-08-05T12:19:02.693Z,2.88
2022-08-05T12:24:12.525Z,3.20
2022-08-05T12:29:22.627Z,3.83
2022-08-05T12:34:32.332Z,3.17
2022-08-05T12:39:37.246Z,3.20
2022-08-05T12:44:37.101Z,3.38
2022-08-05T12:50:04.010Z,3.88
2022-08-05T12:54:59.603Z,3.33
2022-08-05T13:01:58.670Z,3.67
2022-08-05T13:05:15.503Z,3.63
2022-08-05T13:10:14.727Z,3.53
2022-08-05T13:15:24.490Z,3.03
2022-08-05T13:20:40.492Z,3.08
2022-08-05T13:25:51.687Z,3.38
2022-08-05T13:30:55.479Z,3.80
2022-08-05T13:35:55.089Z,3.50
2022-08-05T13:41:00.441Z,3.40
2022-08-05T13:45:58.104Z,3.35
2022-08-05T13:51:04.825Z,3.15
2022-08-05T13:56:03.279Z,3.50
2022-08-05T14:01:00.763Z,2.60
2022-08-05T14:06:25.382Z,2.13
2022-08-05T14:11:20.503Z,2.50
2022-08-05T14:16:19.298Z,2.78
2022-08-05T14:22:07.827Z,2.95
2022-08-05T14:26:36.726Z,2.65
2022-08-05T14:31:54.419Z,2.50
2022-08-05T14:36:53.558Z,2.65
2022-08-05T14:42:15.840Z,2.60
2022-08-05T14:47:08.943Z,2.22
2022-08-05T14:52:06.354Z,2.20
2022-08-05T14:57:13.588Z,2.53
2022-08-05T15:02:15.050Z,2.60
2022-08-05T15:08:12.107Z,2.40
2022-08-05T15:12:41.069Z,2.90
2022-08-05T15:17:53.224Z,2.55
2022-08-05T15:22:53.970Z,2.97
2022-08-05T15:27:54.789Z,3.35
2022-08-05T15:33:05.237Z,3.20
2022-08-05T15:38:34.387Z,3.28
2022-08-05T15:43:21.071Z,3.28
2022-08-05T15:48:21.188Z,2.67
2022-08-05T15:53:18.681Z,2.92
2022-08-05T15:58:18.620Z,3.25
2022-08-05T16:03:16.501Z,4.00
2022-08-05T16:08:16.087Z,3.00
2022-08-05T16:13:13.690Z,3.35
2022-08-05T16:18:21.171Z,3.03
2022-08-05T16:23:28.050Z,3.47
2022-08-05T16:28:30.489Z,3.60
2022-08-05T16:33:28.990Z,3.65
2022-08-05T16:38:38.795Z,3.30
2022-08-05T16:43:37.960Z,4.40
2022-08-05T16:48:36.290Z,8.07
2022-08-05T16:54:03.884Z,5.20
2022-08-05T16:58:51.588Z,4.53
2022-08-05T17:03:49.064Z,3.90
2022-08-05T17:08:53.421Z,8.60
2022-08-05T17:13:51.560Z,8.13
2022-08-05T17:19:00.375Z,5.60
2022-08-05T17:24:03.425Z,4.75
2022-08-05T17:29:09.838Z,4.50
2022-08-05T17:34:07.795Z,4.53
2022-08-05T17:39:06.354Z,3.97
2022-08-05T17:44:26.537Z,4.38
2022-08-05T17:49:59.650Z,4.45
2022-08-05T17:54:47.561Z,4.15
2022-08-05T17:59:46.421Z,3.95
2022-08-05T18:05:06.292Z,4.50
2022-08-05T18:10:10.001Z,4.95
2022-08-05T18:15:09.000Z,5.45
2022-08-05T18:20:06.998Z,5.30
2022-08-05T18:25:11.616Z,5.88
2022-08-05T18:30:15.266Z,5.78
2022-08-05T18:35:12.727Z,5.03
2022-08-05T18:40:31.777Z,5.20
2022-08-05T18:45:41.465Z,4.95
2022-08-05T18:52:02.989Z,6.05
2022-08-05T18:56:15.450Z,4.60
2022-08-05T19:01:18.147Z,5.18
2022-08-05T19:06:21.672Z,5.55
2022-08-05T19:11:27.858Z,5.80
2022-08-05T19:16:28.406Z,5.03
2022-08-05T19:21:34.353Z,5.47
2022-08-05T19:26:32.642Z,4.07
2022-08-05T19:31:30.906Z,5.70
2022-08-05T19:36:42.552Z,4.40
2022-08-05T19:42:07.634Z,5.93
2022-08-05T19:46:57.567Z,4.75
2022-08-05T19:52:08.740Z,4.38
2022-08-05T19:57:12.428Z,4.13
2022-08-05T20:02:17.658Z,4.38
2022-08-05T20:07:15.158Z,4.50
2022-08-05T20:12:12.492Z,4.63
2022-08-05T20:17:10.267Z,4.72
2022-08-05T20:22:13.539Z,5.80
2022-08-05T20:27:11.377Z,4.65
2022-08-05T20:32:10.302Z,4.78
2022-08-05T20:37:09.599Z,4.68
2022-08-05T20:42:15.626Z,4.75
2022-08-05T20:47:19.228Z,4.82
2022-08-05T20:57:43.604Z,5.07
2022-08-05T21:02:51.884Z,5.65
2022-08-05T21:07:52.286Z,5.30
2022-08-05T21:13:08.977Z,4.63
2022-08-05T21:18:07.793Z,5.50
2022-08-05T21:23:07.726Z,5.60
2022-08-05T21:28:05.506Z,5.00
2022-08-05T21:33:03.461Z,4.93
2022-08-05T21:38:05.780Z,4.80
2022-08-05T21:43:05.668Z,5.53
2022-08-05T21:48:06.569Z,4.35
2022-08-05T21:53:16.749Z,5.30
2022-08-05T21:58:15.608Z,4.68
2022-08-05T22:03:16.679Z,5.07
2022-08-05T22:08:22.073Z,5.50
2022-08-05T22:14:05.633Z,5.03
2022-08-05T22:18:39.206Z,4.57
2022-08-05T22:24:01.835Z,5.15
2022-08-05T22:29:01.062Z,5.50
2022-08-05T22:34:01.456Z,4.88
2022-08-05T22:39:09.082Z,5.13
2022-08-05T22:44:08.554Z,4.72
2022-08-05T22:49:06.069Z,4.87
2022-08-05T22:54:04.680Z,4.30
2022-08-05T22:59:43.896Z,3.95
2022-08-05T23:04:22.493Z,4.85
2022-08-05T23:09:27.598Z,4.25
2022-08-05T23:14:37.207Z,4.20
2022-08-05T23:19:38.543Z,4.43
2022-08-05T23:24:48.376Z,5.20
2022-08-05T23:29:50.586Z,4.90
2022-08-05T23:34:48.158Z,4.45
2022-08-05T23:39:54.170Z,4.07
2022-08-05T23:44:54.256Z,4.32
2022-08-05T23:54:55.592Z,4.88
